sensor_id;sensor_type;location;lat;lon;timestamp;P1;durP1;ratioP1;P2;durP2;ratioP2
76856;SDS011;69705;44.686;37.628;2023-08-31T00:00:55;13.20;;;7.60;;
76856;SDS011;69705;44.686;37.628;2023-08-31T00:03:22;13.93;;;7.72;;
76856;SDS011;69705;44.686;37.628;2023-08-31T00:05:48;14.23;;;7.70;;
76856;SDS011;69705;44.686;37.628;2023-08-31T00:08:17;12.40;;;7.43;;
76856;SDS011;69705;44.686;37.628;2023-08-31T00:10:44;14.55;;;7.63;;
76856;SDS011;69705;44.686;37.628;2023-08-31T00:13:11;15.55;;;7.50;;
76856;SDS011;69705;44.686;37.628;2023-08-31T00:15:38;12.95;;;7.18;;
76856;SDS011;69705;44.686;37.628;2023-08-31T00:18:07;14.17;;;8.03;;
76856;SDS011;69705;44.686;37.628;2023-08-31T00:20:34;15.10;;;7.88;;
76856;SDS011;69705;44.686;37.628;2023-08-31T00:23:01;16.55;;;7.70;;
76856;SDS011;69705;44.686;37.628;2023-08-31T00:25:28;12.73;;;7.45;;
76856;SDS011;69705;44.686;37.628;2023-08-31T00:27:56;12.40;;;7.43;;
76856;SDS011;69705;44.686;37.628;2023-08-31T00:30:25;13.60;;;7.83;;
76856;SDS011;69705;44.686;37.628;2023-08-31T00:32:55;12.30;;;7.15;;
76856;SDS011;69705;44.686;37.628;2023-08-31T00:35:27;12.23;;;7.70;;
76856;SDS011;69705;44.686;37.628;2023-08-31T00:37:55;11.40;;;7.28;;
76856;SDS011;69705;44.686;37.628;2023-08-31T00:40:25;14.35;;;7.97;;
76856;SDS011;69705;44.686;37.628;2023-08-31T00:42:52;15.77;;;8.10;;
76856;SDS011;69705;44.686;37.628;2023-08-31T00:45:19;13.65;;;8.00;;
76856;SDS011;69705;44.686;37.628;2023-08-31T00:47:47;12.27;;;7.85;;
76856;SDS011;69705;44.686;37.628;2023-08-31T00:50:15;11.45;;;7.85;;
76856;SDS011;69705;44.686;37.628;2023-08-31T00:52:43;13.25;;;7.63;;
76856;SDS011;69705;44.686;37.628;2023-08-31T00:55:14;12.53;;;8.00;;
76856;SDS011;69705;44.686;37.628;2023-08-31T00:57:44;27.50;;;7.85;;
76856;SDS011;69705;44.686;37.628;2023-08-31T01:00:11;13.15;;;7.85;;
76856;SDS011;69705;44.686;37.628;2023-08-31T01:02:43;14.85;;;7.70;;
76856;SDS011;69705;44.686;37.628;2023-08-31T01:05:33;13.85;;;7.90;;
76856;SDS011;69705;44.686;37.628;2023-08-31T01:08:27;12.17;;;7.37;;
76856;SDS011;69705;44.686;37.628;2023-08-31T01:13:39;14.27;;;7.90;;
76856;SDS011;69705;44.686;37.628;2023-08-31T01:16:08;13.63;;;8.13;;
76856;SDS011;69705;44.686;37.628;2023-08-31T01:18:35;14.38;;;7.90;;
76856;SDS011;69705;44.686;37.628;2023-08-31T01:21:08;14.80;;;8.13;;
76856;SDS011;69705;44.686;37.628;2023-08-31T01:23:49;14.50;;;7.57;;
76856;SDS011;69705;44.686;37.628;2023-08-31T01:26:16;13.80;;;7.93;;
76856;SDS011;69705;44.686;37.628;2023-08-31T01:28:43;13.98;;;7.75;;
76856;SDS011;69705;44.686;37.628;2023-08-31T01:31:10;11.52;;;7.50;;
76856;SDS011;69705;44.686;37.628;2023-08-31T01:33:37;12.47;;;7.70;;
76856;SDS011;69705;44.686;37.628;2023-08-31T01:36:04;13.85;;;7.78;;
76856;SDS011;69705;44.686;37.628;2023-08-31T01:38:45;12.88;;;8.10;;
76856;SDS011;69705;44.686;37.628;2023-08-31T01:41:17;16.25;;;8.40;;
76856;SDS011;69705;44.686;37.628;2023-08-31T01:43:45;13.32;;;7.97;;
76856;SDS011;69705;44.686;37.628;2023-08-31T01:46:13;13.53;;;7.97;;
76856;SDS011;69705;44.686;37.628;2023-08-31T01:48:42;11.93;;;7.70;;
76856;SDS011;69705;44.686;37.628;2023-08-31T01:51:09;13.50;;;7.57;;
76856;SDS011;69705;44.686;37.628;2023-08-31T01:53:36;12.70;;;7.55;;
76856;SDS011;69705;44.686;37.628;2023-08-31T01:56:03;11.23;;;7.60;;
76856;SDS011;69705;44.686;37.628;2023-08-31T01:58:30;13.40;;;7.57;;
76856;SDS011;69705;44.686;37.628;2023-08-31T02:00:57;15.98;;;7.70;;
76856;SDS011;69705;44.686;37.628;2023-08-31T02:03:24;14.02;;;7.63;;
76856;SDS011;69705;44.686;37.628;2023-08-31T02:05:50;14.80;;;8.05;;
76856;SDS011;69705;44.686;37.628;2023-08-31T02:08:17;12.68;;;7.90;;
76856;SDS011;69705;44.686;37.628;2023-08-31T02:10:45;14.90;;;7.30;;
76856;SDS011;69705;44.686;37.628;2023-08-31T02:13:20;13.75;;;7.43;;
76856;SDS011;69705;44.686;37.628;2023-08-31T02:15:47;12.00;;;7.82;;
76856;SDS011;69705;44.686;37.628;2023-08-31T02:18:17;13.13;;;7.50;;
76856;SDS011;69705;44.686;37.628;2023-08-31T02:20:44;13.48;;;7.75;;
76856;SDS011;69705;44.686;37.628;2023-08-31T02:23:10;13.35;;;7.63;;
76856;SDS011;69705;44.686;37.628;2023-08-31T02:25:38;12.23;;;7.28;;
76856;SDS011;69705;44.686;37.628;2023-08-31T02:28:04;11.15;;;6.97;;
76856;SDS011;69705;44.686;37.628;2023-08-31T02:30:31;12.15;;;7.43;;
76856;SDS011;69705;44.686;37.628;2023-08-31T02:32:58;14.00;;;7.70;;
76856;SDS011;69705;44.686;37.628;2023-08-31T02:35:24;11.43;;;7.13;;
76856;SDS011;69705;44.686;37.628;2023-08-31T02:37:51;12.93;;;7.72;;
76856;SDS011;69705;44.686;37.628;2023-08-31T02:40:18;14.50;;;7.85;;
76856;SDS011;69705;44.686;37.628;2023-08-31T02:42:49;13.30;;;7.43;;
76856;SDS011;69705;44.686;37.628;2023-08-31T02:45:17;13.10;;;7.60;;
76856;SDS011;69705;44.686;37.628;2023-08-31T02:47:44;11.60;;;7.63;;
76856;SDS011;69705;44.686;37.628;2023-08-31T02:50:11;13.20;;;7.47;;
76856;SDS011;69705;44.686;37.628;2023-08-31T02:52:37;12.77;;;7.70;;
76856;SDS011;69705;44.686;37.628;2023-08-31T02:55:05;12.88;;;8.10;;
76856;SDS011;69705;44.686;37.628;2023-08-31T02:57:32;14.43;;;8.25;;
76856;SDS011;69705;44.686;37.628;2023-08-31T02:59:59;13.00;;;7.70;;
76856;SDS011;69705;44.686;37.628;2023-08-31T03:02:26;10.75;;;7.80;;
76856;SDS011;69705;44.686;37.628;2023-08-31T03:04:53;12.55;;;7.45;;
76856;SDS011;69705;44.686;37.628;2023-08-31T03:07:19;13.70;;;7.80;;
76856;SDS011;69705;44.686;37.628;2023-08-31T03:09:49;12.82;;;7.72;;
76856;SDS011;69705;44.686;37.628;2023-08-31T03:12:17;13.40;;;7.57;;
76856;SDS011;69705;44.686;37.628;2023-08-31T03:14:44;11.27;;;7.60;;
76856;SDS011;69705;44.686;37.628;2023-08-31T03:17:10;12.90;;;7.88;;
76856;SDS011;69705;44.686;37.628;2023-08-31T03:19:37;14.70;;;7.93;;
76856;SDS011;69705;44.686;37.628;2023-08-31T03:22:04;13.82;;;8.02;;
76856;SDS011;69705;44.686;37.628;2023-08-31T03:24:32;11.80;;;7.43;;
76856;SDS011;69705;44.686;37.628;2023-08-31T03:26:59;14.32;;;7.82;;
76856;SDS011;69705;44.686;37.628;2023-08-31T03:29:26;12.18;;;7.60;;
76856;SDS011;69705;44.686;37.628;2023-08-31T03:31:55;12.15;;;7.55;;
76856;SDS011;69705;44.686;37.628;2023-08-31T03:34:22;13.45;;;7.60;;
76856;SDS011;69705;44.686;37.628;2023-08-31T03:36:49;11.97;;;7.53;;
76856;SDS011;69705;44.686;37.628;2023-08-31T03:39:16;13.15;;;7.95;;
76856;SDS011;69705;44.686;37.628;2023-08-31T03:41:43;11.85;;;7.90;;
76856;SDS011;69705;44.686;37.628;2023-08-31T03:44:10;15.60;;;8.35;;
76856;SDS011;69705;44.686;37.628;2023-08-31T03:46:37;14.40;;;8.32;;
76856;SDS011;69705;44.686;37.628;2023-08-31T03:49:04;14.43;;;8.27;;
76856;SDS011;69705;44.686;37.628;2023-08-31T03:51:30;15.10;;;8.40;;
76856;SDS011;69705;44.686;37.628;2023-08-31T03:53:57;14.13;;;8.52;;
76856;SDS011;69705;44.686;37.628;2023-08-31T03:56:26;11.90;;;8.25;;
76856;SDS011;69705;44.686;37.628;2023-08-31T03:58:54;14.88;;;9.05;;
76856;SDS011;69705;44.686;37.628;2023-08-31T04:01:20;15.03;;;8.23;;
76856;SDS011;69705;44.686;37.628;2023-08-31T04:03:48;15.95;;;8.30;;
76856;SDS011;69705;44.686;37.628;2023-08-31T04:06:15;14.02;;;8.43;;
76856;SDS011;69705;44.686;37.628;2023-08-31T04:08:42;13.90;;;8.50;;
76856;SDS011;69705;44.686;37.628;2023-08-31T04:11:09;14.52;;;8.27;;
76856;SDS011;69705;44.686;37.628;2023-08-31T04:13:36;17.50;;;8.47;;
76856;SDS011;69705;44.686;37.628;2023-08-31T04:16:02;13.18;;;8.27;;
76856;SDS011;69705;44.686;37.628;2023-08-31T04:18:29;13.82;;;8.57;;
76856;SDS011;69705;44.686;37.628;2023-08-31T04:20:56;15.00;;;8.20;;
76856;SDS011;69705;44.686;37.628;2023-08-31T04:23:24;11.82;;;7.43;;
76856;SDS011;69705;44.686;37.628;2023-08-31T04:25:51;11.67;;;7.63;;
76856;SDS011;69705;44.686;37.628;2023-08-31T04:28:19;13.27;;;7.93;;
76856;SDS011;69705;44.686;37.628;2023-08-31T04:30:46;14.35;;;8.10;;
76856;SDS011;69705;44.686;37.628;2023-08-31T04:33:12;12.50;;;8.27;;
76856;SDS011;69705;44.686;37.628;2023-08-31T04:35:39;13.27;;;7.18;;
76856;SDS011;69705;44.686;37.628;2023-08-31T04:38:06;11.10;;;7.77;;
76856;SDS011;69705;44.686;37.628;2023-08-31T04:40:32;17.63;;;8.18;;
76856;SDS011;69705;44.686;37.628;2023-08-31T04:42:59;12.38;;;7.75;;
76856;SDS011;69705;44.686;37.628;2023-08-31T04:45:26;14.55;;;9.07;;
76856;SDS011;69705;44.686;37.628;2023-08-31T04:47:52;14.32;;;8.10;;
76856;SDS011;69705;44.686;37.628;2023-08-31T04:50:19;13.07;;;7.90;;
76856;SDS011;69705;44.686;37.628;2023-08-31T04:52:45;13.88;;;8.10;;
76856;SDS011;69705;44.686;37.628;2023-08-31T04:55:12;16.98;;;8.80;;
76856;SDS011;69705;44.686;37.628;2023-08-31T04:57:39;14.27;;;8.27;;
76856;SDS011;69705;44.686;37.628;2023-08-31T05:00:07;12.48;;;8.02;;
76856;SDS011;69705;44.686;37.628;2023-08-31T05:02:38;14.97;;;7.43;;
76856;SDS011;69705;44.686;37.628;2023-08-31T05:05:05;13.48;;;7.50;;
76856;SDS011;69705;44.686;37.628;2023-08-31T05:07:32;13.25;;;7.85;;
76856;SDS011;69705;44.686;37.628;2023-08-31T05:09:59;12.95;;;7.65;;
76856;SDS011;69705;44.686;37.628;2023-08-31T05:12:26;12.73;;;7.30;;
76856;SDS011;69705;44.686;37.628;2023-08-31T05:14:52;10.80;;;7.03;;
76856;SDS011;69705;44.686;37.628;2023-08-31T05:17:19;13.82;;;7.95;;
76856;SDS011;69705;44.686;37.628;2023-08-31T05:19:45;14.75;;;7.50;;
76856;SDS011;69705;44.686;37.628;2023-08-31T05:22:13;13.90;;;7.93;;
76856;SDS011;69705;44.686;37.628;2023-08-31T05:24:39;13.60;;;8.05;;
76856;SDS011;69705;44.686;37.628;2023-08-31T05:27:06;14.10;;;7.60;;
76856;SDS011;69705;44.686;37.628;2023-08-31T05:29:33;12.57;;;7.65;;
76856;SDS011;69705;44.686;37.628;2023-08-31T05:31:59;12.15;;;7.63;;
76856;SDS011;69705;44.686;37.628;2023-08-31T05:34:26;12.63;;;7.20;;
76856;SDS011;69705;44.686;37.628;2023-08-31T05:36:52;12.82;;;6.95;;
76856;SDS011;69705;44.686;37.628;2023-08-31T05:39:19;13.40;;;7.20;;
76856;SDS011;69705;44.686;37.628;2023-08-31T05:41:46;13.82;;;7.22;;
76856;SDS011;69705;44.686;37.628;2023-08-31T05:44:12;12.82;;;7.13;;
76856;SDS011;69705;44.686;37.628;2023-08-31T05:46:39;15.05;;;7.40;;
76856;SDS011;69705;44.686;37.628;2023-08-31T05:49:07;12.25;;;7.10;;
76856;SDS011;69705;44.686;37.628;2023-08-31T05:51:34;15.13;;;6.90;;
76856;SDS011;69705;44.686;37.628;2023-08-31T05:54:00;10.63;;;6.70;;
76856;SDS011;69705;44.686;37.628;2023-08-31T05:56:29;11.35;;;7.07;;
76856;SDS011;69705;44.686;37.628;2023-08-31T05:58:56;13.52;;;7.20;;
76856;SDS011;69705;44.686;37.628;2023-08-31T06:01:22;12.05;;;6.75;;
76856;SDS011;69705;44.686;37.628;2023-08-31T06:03:49;14.97;;;7.67;;
76856;SDS011;69705;44.686;37.628;2023-08-31T06:06:15;12.60;;;6.88;;
76856;SDS011;69705;44.686;37.628;2023-08-31T06:08:42;15.50;;;7.18;;
76856;SDS011;69705;44.686;37.628;2023-08-31T06:11:09;12.13;;;7.03;;
76856;SDS011;69705;44.686;37.628;2023-08-31T06:13:37;12.55;;;6.80;;
76856;SDS011;69705;44.686;37.628;2023-08-31T06:16:04;11.37;;;6.47;;
76856;SDS011;69705;44.686;37.628;2023-08-31T06:18:30;12.27;;;6.47;;
76856;SDS011;69705;44.686;37.628;2023-08-31T06:20:57;14.25;;;6.82;;
76856;SDS011;69705;44.686;37.628;2023-08-31T06:23:24;14.30;;;7.03;;
76856;SDS011;69705;44.686;37.628;2023-08-31T06:25:50;10.18;;;6.18;;
76856;SDS011;69705;44.686;37.628;2023-08-31T06:28:17;13.30;;;6.70;;
76856;SDS011;69705;44.686;37.628;2023-08-31T06:30:43;11.65;;;6.68;;
76856;SDS011;69705;44.686;37.628;2023-08-31T06:33:12;11.20;;;6.55;;
76856;SDS011;69705;44.686;37.628;2023-08-31T06:35:40;10.10;;;6.07;;
76856;SDS011;69705;44.686;37.628;2023-08-31T06:38:07;10.18;;;6.10;;
76856;SDS011;69705;44.686;37.628;2023-08-31T06:40:33;10.93;;;6.00;;
76856;SDS011;69705;44.686;37.628;2023-08-31T06:43:00;11.07;;;6.30;;
76856;SDS011;69705;44.686;37.628;2023-08-31T06:45:26;13.68;;;6.72;;
76856;SDS011;69705;44.686;37.628;2023-08-31T06:47:53;11.68;;;6.15;;
76856;SDS011;69705;44.686;37.628;2023-08-31T06:50:20;10.98;;;5.82;;
76856;SDS011;69705;44.686;37.628;2023-08-31T06:52:46;11.23;;;5.80;;
76856;SDS011;69705;44.686;37.628;2023-08-31T06:55:13;11.35;;;5.55;;
76856;SDS011;69705;44.686;37.628;2023-08-31T06:57:39;11.13;;;5.78;;
76856;SDS011;69705;44.686;37.628;2023-08-31T07:00:08;12.57;;;5.78;;
76856;SDS011;69705;44.686;37.628;2023-08-31T07:02:41;10.30;;;5.78;;
76856;SDS011;69705;44.686;37.628;2023-08-31T07:05:09;12.97;;;5.97;;
76856;SDS011;69705;44.686;37.628;2023-08-31T07:07:36;12.23;;;6.05;;
76856;SDS011;69705;44.686;37.628;2023-08-31T07:10:03;9.50;;;5.53;;
76856;SDS011;69705;44.686;37.628;2023-08-31T07:12:32;10.98;;;6.45;;
76856;SDS011;69705;44.686;37.628;2023-08-31T07:14:58;13.43;;;6.20;;
76856;SDS011;69705;44.686;37.628;2023-08-31T07:17:25;11.13;;;6.10;;
76856;SDS011;69705;44.686;37.628;2023-08-31T07:19:52;13.57;;;6.13;;
76856;SDS011;69705;44.686;37.628;2023-08-31T07:22:18;10.27;;;5.30;;
76856;SDS011;69705;44.686;37.628;2023-08-31T07:24:45;9.70;;;5.55;;
76856;SDS011;69705;44.686;37.628;2023-08-31T07:27:12;9.93;;;5.40;;
76856;SDS011;69705;44.686;37.628;2023-08-31T07:29:38;12.37;;;5.20;;
76856;SDS011;69705;44.686;37.628;2023-08-31T07:32:05;11.73;;;5.20;;
76856;SDS011;69705;44.686;37.628;2023-08-31T07:34:33;9.35;;;5.28;;
76856;SDS011;69705;44.686;37.628;2023-08-31T07:37:00;11.10;;;4.78;;
76856;SDS011;69705;44.686;37.628;2023-08-31T07:39:26;10.27;;;5.25;;
76856;SDS011;69705;44.686;37.628;2023-08-31T07:41:54;9.60;;;5.17;;
76856;SDS011;69705;44.686;37.628;2023-08-31T07:44:20;10.60;;;5.82;;
76856;SDS011;69705;44.686;37.628;2023-08-31T07:46:47;9.18;;;4.63;;
76856;SDS011;69705;44.686;37.628;2023-08-31T07:49:14;8.18;;;4.78;;
76856;SDS011;69705;44.686;37.628;2023-08-31T07:51:40;8.05;;;4.72;;
76856;SDS011;69705;44.686;37.628;2023-08-31T07:54:07;9.97;;;5.10;;
76856;SDS011;69705;44.686;37.628;2023-08-31T07:56:34;11.13;;;4.93;;
76856;SDS011;69705;44.686;37.628;2023-08-31T07:59:01;10.40;;;5.03;;
76856;SDS011;69705;44.686;37.628;2023-08-31T08:01:28;10.98;;;5.10;;
76856;SDS011;69705;44.686;37.628;2023-08-31T08:03:54;9.07;;;4.80;;
76856;SDS011;69705;44.686;37.628;2023-08-31T08:06:21;9.60;;;4.97;;
76856;SDS011;69705;44.686;37.628;2023-08-31T08:08:48;10.60;;;5.30;;
76856;SDS011;69705;44.686;37.628;2023-08-31T08:11:14;9.68;;;4.97;;
76856;SDS011;69705;44.686;37.628;2023-08-31T08:13:42;10.13;;;4.55;;
76856;SDS011;69705;44.686;37.628;2023-08-31T08:16:09;9.68;;;4.43;;
76856;SDS011;69705;44.686;37.628;2023-08-31T08:18:35;9.87;;;4.30;;
76856;SDS011;69705;44.686;37.628;2023-08-31T08:21:02;8.32;;;4.30;;
76856;SDS011;69705;44.686;37.628;2023-08-31T08:23:29;10.38;;;4.57;;
76856;SDS011;69705;44.686;37.628;2023-08-31T08:25:56;8.32;;;4.20;;
76856;SDS011;69705;44.686;37.628;2023-08-31T08:28:25;8.68;;;4.70;;
76856;SDS011;69705;44.686;37.628;2023-08-31T08:30:52;9.47;;;4.77;;
76856;SDS011;69705;44.686;37.628;2023-08-31T08:33:19;10.77;;;4.97;;
76856;SDS011;69705;44.686;37.628;2023-08-31T08:35:46;10.88;;;4.90;;
76856;SDS011;69705;44.686;37.628;2023-08-31T08:38:13;9.95;;;4.82;;
76856;SDS011;69705;44.686;37.628;2023-08-31T08:40:40;7.93;;;4.13;;
76856;SDS011;69705;44.686;37.628;2023-08-31T08:43:07;10.27;;;4.53;;
76856;SDS011;69705;44.686;37.628;2023-08-31T08:45:35;9.70;;;4.88;;
76856;SDS011;69705;44.686;37.628;2023-08-31T08:48:05;12.07;;;4.80;;
76856;SDS011;69705;44.686;37.628;2023-08-31T08:50:34;9.50;;;4.60;;
76856;SDS011;69705;44.686;37.628;2023-08-31T08:53:04;10.45;;;4.90;;
76856;SDS011;69705;44.686;37.628;2023-08-31T08:55:32;11.03;;;4.60;;
76856;SDS011;69705;44.686;37.628;2023-08-31T08:57:59;9.43;;;4.60;;
76856;SDS011;69705;44.686;37.628;2023-08-31T09:00:26;11.60;;;4.90;;
76856;SDS011;69705;44.686;37.628;2023-08-31T09:02:54;10.20;;;5.07;;
76856;SDS011;69705;44.686;37.628;2023-08-31T09:05:22;9.55;;;4.47;;
76856;SDS011;69705;44.686;37.628;2023-08-31T09:08:05;10.17;;;4.77;;
76856;SDS011;69705;44.686;37.628;2023-08-31T09:10:36;9.57;;;4.95;;
76856;SDS011;69705;44.686;37.628;2023-08-31T09:13:09;9.10;;;4.70;;
76856;SDS011;69705;44.686;37.628;2023-08-31T09:15:39;11.65;;;4.95;;
76856;SDS011;69705;44.686;37.628;2023-08-31T09:18:29;9.85;;;5.30;;
76856;SDS011;69705;44.686;37.628;2023-08-31T09:21:00;7.60;;;4.33;;
76856;SDS011;69705;44.686;37.628;2023-08-31T09:23:28;8.70;;;4.43;;
76856;SDS011;69705;44.686;37.628;2023-08-31T09:25:55;13.50;;;5.15;;
76856;SDS011;69705;44.686;37.628;2023-08-31T09:28:23;9.63;;;4.57;;
76856;SDS011;69705;44.686;37.628;2023-08-31T09:31:08;8.77;;;4.53;;
76856;SDS011;69705;44.686;37.628;2023-08-31T09:33:35;8.60;;;4.63;;
76856;SDS011;69705;44.686;37.628;2023-08-31T09:36:03;11.05;;;4.80;;
76856;SDS011;69705;44.686;37.628;2023-08-31T09:38:32;9.20;;;4.82;;
76856;SDS011;69705;44.686;37.628;2023-08-31T09:41:07;9.82;;;4.68;;
76856;SDS011;69705;44.686;37.628;2023-08-31T09:43:34;7.75;;;4.57;;
76856;SDS011;69705;44.686;37.628;2023-08-31T09:46:02;10.17;;;4.43;;
76856;SDS011;69705;44.686;37.628;2023-08-31T09:48:30;9.32;;;4.88;;
76856;SDS011;69705;44.686;37.628;2023-08-31T09:50:58;11.15;;;5.30;;
76856;SDS011;69705;44.686;37.628;2023-08-31T09:53:31;11.90;;;5.10;;
76856;SDS011;69705;44.686;37.628;2023-08-31T09:55:58;9.48;;;5.00;;
76856;SDS011;69705;44.686;37.628;2023-08-31T09:58:26;10.20;;;4.73;;
76856;SDS011;69705;44.686;37.628;2023-08-31T10:00:54;9.52;;;4.82;;
76856;SDS011;69705;44.686;37.628;2023-08-31T10:03:21;8.85;;;4.60;;
76856;SDS011;69705;44.686;37.628;2023-08-31T10:05:48;8.40;;;4.28;;
76856;SDS011;69705;44.686;37.628;2023-08-31T10:08:16;8.82;;;4.60;;
76856;SDS011;69705;44.686;37.628;2023-08-31T10:10:43;10.27;;;4.67;;
76856;SDS011;69705;44.686;37.628;2023-08-31T10:13:11;9.90;;;3.80;;
76856;SDS011;69705;44.686;37.628;2023-08-31T10:15:39;10.63;;;4.75;;
76856;SDS011;69705;44.686;37.628;2023-08-31T10:18:09;11.00;;;4.30;;
76856;SDS011;69705;44.686;37.628;2023-08-31T10:20:35;9.27;;;4.20;;
76856;SDS011;69705;44.686;37.628;2023-08-31T10:23:02;8.03;;;3.70;;
76856;SDS011;69705;44.686;37.628;2023-08-31T10:28:24;8.63;;;3.42;;
76856;SDS011;69705;44.686;37.628;2023-08-31T10:33:40;9.50;;;3.67;;
76856;SDS011;69705;44.686;37.628;2023-08-31T10:38:45;7.03;;;3.35;;
76856;SDS011;69705;44.686;37.628;2023-08-31T10:43:57;9.30;;;3.80;;
76856;SDS011;69705;44.686;37.628;2023-08-31T10:46:31;7.68;;;3.47;;
76856;SDS011;69705;44.686;37.628;2023-08-31T10:49:12;11.87;;;3.43;;
76856;SDS011;69705;44.686;37.628;2023-08-31T10:51:41;9.32;;;3.88;;
76856;SDS011;69705;44.686;37.628;2023-08-31T10:57:01;9.07;;;3.55;;
76856;SDS011;69705;44.686;37.628;2023-08-31T10:59:43;8.40;;;3.60;;
76856;SDS011;69705;44.686;37.628;2023-08-31T11:07:43;6.35;;;3.10;;
76856;SDS011;69705;44.686;37.628;2023-08-31T11:10:19;8.38;;;3.50;;
76856;SDS011;69705;44.686;37.628;2023-08-31T11:12:51;7.97;;;3.60;;
76856;SDS011;69705;44.686;37.628;2023-08-31T11:15:22;7.90;;;3.40;;
76856;SDS011;69705;44.686;37.628;2023-08-31T11:17:52;8.20;;;3.42;;
76856;SDS011;69705;44.686;37.628;2023-08-31T11:20:20;7.80;;;3.20;;
76856;SDS011;69705;44.686;37.628;2023-08-31T11:22:49;6.93;;;3.30;;
76856;SDS011;69705;44.686;37.628;2023-08-31T11:25:19;6.35;;;3.05;;
76856;SDS011;69705;44.686;37.628;2023-08-31T11:27:54;7.37;;;3.60;;
76856;SDS011;69705;44.686;37.628;2023-08-31T11:30:26;6.90;;;3.10;;
76856;SDS011;69705;44.686;37.628;2023-08-31T11:33:03;7.75;;;3.30;;
76856;SDS011;69705;44.686;37.628;2023-08-31T11:35:32;7.38;;;3.00;;
76856;SDS011;69705;44.686;37.628;2023-08-31T11:38:01;7.25;;;3.22;;
76856;SDS011;69705;44.686;37.628;2023-08-31T11:40:32;7.93;;;2.93;;
76856;SDS011;69705;44.686;37.628;2023-08-31T11:42:59;16.13;;;3.80;;
76856;SDS011;69705;44.686;37.628;2023-08-31T11:45:26;9.00;;;3.42;;
76856;SDS011;69705;44.686;37.628;2023-08-31T11:47:54;10.75;;;3.25;;
76856;SDS011;69705;44.686;37.628;2023-08-31T11:50:21;8.15;;;2.97;;
76856;SDS011;69705;44.686;37.628;2023-08-31T11:52:50;6.53;;;2.77;;
76856;SDS011;69705;44.686;37.628;2023-08-31T11:55:19;7.30;;;2.83;;
76856;SDS011;69705;44.686;37.628;2023-08-31T11:57:50;7.28;;;3.00;;
76856;SDS011;69705;44.686;37.628;2023-08-31T12:00:18;8.32;;;3.17;;
76856;SDS011;69705;44.686;37.628;2023-08-31T12:02:57;7.10;;;2.75;;
76856;SDS011;69705;44.686;37.628;2023-08-31T12:05:25;8.47;;;3.20;;
76856;SDS011;69705;44.686;37.628;2023-08-31T12:07:53;6.85;;;2.88;;
76856;SDS011;69705;44.686;37.628;2023-08-31T12:10:23;8.40;;;3.75;;
76856;SDS011;69705;44.686;37.628;2023-08-31T12:12:51;7.30;;;3.30;;
76856;SDS011;69705;44.686;37.628;2023-08-31T13:28:27;6.57;;;2.80;;
76856;SDS011;69705;44.686;37.628;2023-08-31T13:30:55;12.88;;;4.00;;
76856;SDS011;69705;44.686;37.628;2023-08-31T13:33:24;8.52;;;3.75;;
76856;SDS011;69705;44.686;37.628;2023-08-31T13:35:50;9.50;;;3.73;;
76856;SDS011;69705;44.686;37.628;2023-08-31T13:38:17;11.25;;;3.83;;
76856;SDS011;69705;44.686;37.628;2023-08-31T13:40:43;9.02;;;3.45;;
76856;SDS011;69705;44.686;37.628;2023-08-31T13:43:10;8.23;;;3.70;;
76856;SDS011;69705;44.686;37.628;2023-08-31T13:45:36;9.88;;;3.80;;
76856;SDS011;69705;44.686;37.628;2023-08-31T13:48:03;7.07;;;3.10;;
76856;SDS011;69705;44.686;37.628;2023-08-31T13:50:30;9.75;;;3.28;;
76856;SDS011;69705;44.686;37.628;2023-08-31T13:52:57;8.93;;;3.70;;
76856;SDS011;69705;44.686;37.628;2023-08-31T13:55:23;13.05;;;3.40;;
76856;SDS011;69705;44.686;37.628;2023-08-31T13:57:50;8.45;;;3.90;;
76856;SDS011;69705;44.686;37.628;2023-08-31T14:00:17;9.43;;;4.30;;
76856;SDS011;69705;44.686;37.628;2023-08-31T14:02:44;8.75;;;3.90;;
76856;SDS011;69705;44.686;37.628;2023-08-31T14:05:11;10.35;;;4.30;;
76856;SDS011;69705;44.686;37.628;2023-08-31T14:07:37;14.38;;;3.83;;
76856;SDS011;69705;44.686;37.628;2023-08-31T14:10:04;12.00;;;3.90;;
76856;SDS011;69705;44.686;37.628;2023-08-31T14:12:32;9.83;;;4.20;;
76856;SDS011;69705;44.686;37.628;2023-08-31T14:14:59;8.95;;;3.90;;
76856;SDS011;69705;44.686;37.628;2023-08-31T14:17:30;11.43;;;4.25;;
76856;SDS011;69705;44.686;37.628;2023-08-31T14:20:00;8.88;;;4.10;;
76856;SDS011;69705;44.686;37.628;2023-08-31T14:22:29;9.80;;;4.15;;
76856;SDS011;69705;44.686;37.628;2023-08-31T14:24:56;10.40;;;4.30;;
76856;SDS011;69705;44.686;37.628;2023-08-31T14:27:22;9.73;;;3.90;;
76856;SDS011;69705;44.686;37.628;2023-08-31T14:29:49;8.18;;;3.80;;
76856;SDS011;69705;44.686;37.628;2023-08-31T14:32:17;10.55;;;4.20;;
76856;SDS011;69705;44.686;37.628;2023-08-31T14:34:43;13.48;;;4.00;;
76856;SDS011;69705;44.686;37.628;2023-08-31T14:37:10;18.13;;;4.30;;
76856;SDS011;69705;44.686;37.628;2023-08-31T14:39:37;9.75;;;4.10;;
76856;SDS011;69705;44.686;37.628;2023-08-31T14:42:03;8.18;;;3.97;;
76856;SDS011;69705;44.686;37.628;2023-08-31T14:44:30;8.63;;;4.22;;
76856;SDS011;69705;44.686;37.628;2023-08-31T14:46:57;10.00;;;4.07;;
76856;SDS011;69705;44.686;37.628;2023-08-31T14:49:23;8.37;;;4.00;;
76856;SDS011;69705;44.686;37.628;2023-08-31T14:51:52;8.77;;;3.83;;
76856;SDS011;69705;44.686;37.628;2023-08-31T14:54:19;14.27;;;4.15;;
76856;SDS011;69705;44.686;37.628;2023-08-31T14:56:46;10.52;;;3.80;;
76856;SDS011;69705;44.686;37.628;2023-08-31T14:59:12;6.50;;;3.60;;
76856;SDS011;69705;44.686;37.628;2023-08-31T15:01:39;19.33;;;4.00;;
76856;SDS011;69705;44.686;37.628;2023-08-31T15:04:05;14.27;;;4.10;;
76856;SDS011;69705;44.686;37.628;2023-08-31T15:06:32;8.80;;;4.10;;
76856;SDS011;69705;44.686;37.628;2023-08-31T15:08:58;12.38;;;4.20;;
76856;SDS011;69705;44.686;37.628;2023-08-31T15:11:26;7.80;;;3.95;;
76856;SDS011;69705;44.686;37.628;2023-08-31T15:13:53;7.87;;;3.80;;
76856;SDS011;69705;44.686;37.628;2023-08-31T15:16:20;6.97;;;3.78;;
76856;SDS011;69705;44.686;37.628;2023-08-31T15:18:47;9.15;;;3.85;;
76856;SDS011;69705;44.686;37.628;2023-08-31T15:21:14;8.95;;;3.90;;
76856;SDS011;69705;44.686;37.628;2023-08-31T15:23:44;9.65;;;3.80;;
76856;SDS011;69705;44.686;37.628;2023-08-31T15:26:11;9.23;;;3.57;;
76856;SDS011;69705;44.686;37.628;2023-08-31T15:28:40;8.45;;;3.70;;
76856;SDS011;69705;44.686;37.628;2023-08-31T15:31:07;10.70;;;4.05;;
76856;SDS011;69705;44.686;37.628;2023-08-31T15:33:34;11.75;;;4.20;;
76856;SDS011;69705;44.686;37.628;2023-08-31T15:36:06;11.15;;;4.57;;
76856;SDS011;69705;44.686;37.628;2023-08-31T15:38:34;10.43;;;4.40;;
76856;SDS011;69705;44.686;37.628;2023-08-31T15:41:03;10.68;;;4.60;;
76856;SDS011;69705;44.686;37.628;2023-08-31T15:43:31;10.52;;;4.40;;
76856;SDS011;69705;44.686;37.628;2023-08-31T15:45:59;11.93;;;4.80;;
76856;SDS011;69705;44.686;37.628;2023-08-31T15:48:26;9.40;;;4.35;;
76856;SDS011;69705;44.686;37.628;2023-08-31T15:50:54;10.10;;;4.30;;
76856;SDS011;69705;44.686;37.628;2023-08-31T15:53:21;13.18;;;4.85;;
76856;SDS011;69705;44.686;37.628;2023-08-31T15:55:49;10.00;;;4.50;;
76856;SDS011;69705;44.686;37.628;2023-08-31T15:58:16;15.13;;;4.82;;
76856;SDS011;69705;44.686;37.628;2023-08-31T16:00:43;13.90;;;4.88;;
76856;SDS011;69705;44.686;37.628;2023-08-31T16:03:09;11.67;;;5.00;;
76856;SDS011;69705;44.686;37.628;2023-08-31T16:05:36;15.15;;;4.75;;